Time;durP1;ratioP1;P1;durP2;ratioP2;P2;SDS_P1;SDS_P2;PMS_P1;PMS_P2;Temp;Humidity;BMP_temperature;BMP_pressure;BME280_temperature;BME280_humidity;BME280_pressure;Samples;Min_cycle;Max_cycle;Signal;HPM_P1;HPM_P2
2022/05/30 00:01:46;;;;;;;7.32;4.47;;;;;;;15.83;78.04;93995.22;4159545;28;20057;-54
2022/05/30 00:03:48;;;;;;;6.88;4.57;;;;;;;15.72;78.41;93999.31;4161007;28;20067;-51
2022/05/30 00:05:50;;;;;;;6.78;4.57;;;;;;;15.45;79.16;93998.56;4176992;28;20082;-55
2022/05/30 00:07:53;;;;;;;7.15;4.75;;;;;;;15.21;80.39;94000.00;4176834;28;20052;-56
2022/05/30 00:09:55;;;;;;;6.75;5.10;;;;;;;15.12;81.01;93999.41;4167849;28;20053;-51
2022/05/30 00:11:56;;;;;;;6.28;4.78;;;;;;;14.94;81.95;94005.28;4172626;28;20049;-54
2022/05/30 00:13:58;;;;;;;8.02;5.20;;;;;;;14.91;82.75;94005.72;4175893;28;20330;-52
2022/05/30 00:16:07;;;;;;;7.38;5.35;;;;;;;14.80;82.99;94011.56;4169056;28;20045;-52
2022/05/30 00:18:09;;;;;;;7.63;5.00;;;;;;;14.71;83.64;94009.16;4167611;28;20052;-51
2022/05/30 00:20:11;;;;;;;7.95;4.75;;;;;;;14.72;83.30;94010.75;4160971;28;20049;-53
2022/05/30 00:22:14;;;;;;;5.97;4.45;;;;;;;14.72;82.51;94005.47;4173946;28;20072;-56
2022/05/30 00:24:16;;;;;;;5.78;4.57;;;;;;;14.89;82.65;94015.66;4160785;28;20369;-54
2022/05/30 00:26:17;;;;;;;6.97;4.70;;;;;;;15.15;82.52;94001.66;4163350;28;20431;-50
2022/05/30 00:28:20;;;;;;;11.48;4.72;;;;;;;15.36;81.07;93996.13;4170941;28;20351;-54
2022/05/30 00:30:22;;;;;;;6.72;4.43;;;;;;;15.61;80.22;93997.31;4162642;28;20054;-50
2022/05/30 00:32:24;;;;;;;7.50;4.70;;;;;;;15.81;79.01;93986.72;4170660;28;20483;-49
2022/05/30 00:34:26;;;;;;;9.40;4.78;;;;;;;15.94;77.46;93992.75;4163183;28;20454;-49
2022/05/30 00:36:28;;;;;;;8.15;5.30;;;;;;;16.10;76.93;93990.66;4160369;28;20239;-53
2022/05/30 00:38:30;;;;;;;10.52;5.10;;;;;;;16.21;76.30;93995.28;4166167;28;20783;-52
2022/05/30 00:40:32;;;;;;;9.25;5.07;;;;;;;16.32;75.79;93991.16;4168032;28;20057;-54
2022/05/30 00:42:34;;;;;;;8.13;4.45;;;;;;;16.30;75.15;93995.84;4168225;28;20202;-57
2022/05/30 00:44:35;;;;;;;12.55;5.47;;;;;;;16.34;74.96;93997.84;4175195;28;20052;-54
2022/05/30 00:46:37;;;;;;;11.65;6.28;;;;;;;16.34;74.31;94003.13;4165634;28;20061;-50
2022/05/30 00:48:46;;;;;;;11.50;6.50;;;;;;;16.36;74.18;94001.09;4175720;28;20051;-53
2022/05/30 00:50:49;;;;;;;9.73;5.40;;;;;;;16.37;73.87;94002.72;4168578;28;20455;-54
2022/05/30 00:52:51;;;;;;;9.60;5.63;;;;;;;16.45;73.88;94004.31;4159176;28;20061;-53
2022/05/30 00:55:19;;;;;;;12.48;6.68;;;;;;;16.46;73.26;94002.50;4171389;28;20114;-52
2022/05/30 00:57:22;;;;;;;10.80;6.55;;;;;;;16.48;73.27;94000.44;4159992;28;20438;-53
2022/05/30 00:59:25;;;;;;;12.32;7.00;;;;;;;16.52;72.84;94005.09;4159537;28;20054;-50
2022/05/30 01:01:28;;;;;;;11.30;6.55;;;;;;;16.58;72.83;94000.78;4158056;28;20053;-55
2022/05/30 01:08:11;;;;;;;14.23;7.78;;;;;;;16.63;72.39;94005.41;4162831;28;20040;-49
2022/05/30 01:10:18;;;;;;;10.68;6.88;;;;;;;16.65;72.31;94003.38;4175877;28;20048;-56
2022/05/30 01:12:37;;;;;;;12.25;7.85;;;;;;;16.68;72.61;94000.31;4175214;28;20048;-55
2022/05/30 01:14:41;;;;;;;13.43;6.68;;;;;;;16.71;72.27;94007.81;4174271;28;20508;-50
2022/05/30 01:16:42;;;;;;;11.52;6.78;;;;;;;16.69;71.94;94000.13;4175461;28;20103;-49
2022/05/30 01:18:48;;;;;;;9.25;6.55;;;;;;;16.68;71.84;94001.13;4159792;28;20472;-51
2022/05/30 01:21:15;;;;;;;11.13;6.65;;;;;;;16.67;71.10;94006.59;4158238;28;20053;-54
2022/05/30 01:23:21;;;;;;;13.27;6.38;;;;;;;16.52;70.86;94009.53;4169331;28;20417;-50
2022/05/30 01:25:32;;;;;;;15.05;6.57;;;;;;;16.24;71.87;94008.09;4162484;28;20393;-56
2022/05/30 01:27:50;;;;;;;9.77;5.43;;;;;;;16.04;71.74;94008.16;4159705;28;20053;-52
2022/05/30 01:29:56;;;;;;;9.82;5.88;;;;;;;15.47;73.21;94018.47;4163770;28;20466;-54
2022/05/30 01:31:58;;;;;;;13.45;6.00;;;;;;;15.28;74.99;94019.28;4166616;28;20060;-55
2022/05/30 01:34:00;;;;;;;11.93;6.43;;;;;;;15.23;75.71;94021.72;4159162;28;20449;-54
2022/05/30 01:36:02;;;;;;;11.40;6.35;;;;;;;15.23;76.01;94027.00;4162609;28;20480;-55
2022/05/30 01:38:04;;;;;;;11.35;6.82;;;;;;;15.14;76.36;94021.09;4160533;28;20111;-51
2022/05/30 01:40:06;;;;;;;11.50;6.13;;;;;;;15.03;76.53;94019.09;4170979;28;20118;-49
2022/05/30 01:42:08;;;;;;;11.98;6.22;;;;;;;14.89;77.57;94018.28;4162093;28;20045;-52
2022/05/30 01:44:10;;;;;;;13.50;6.47;;;;;;;14.87;77.69;94022.94;4159267;28;20111;-55
2022/05/30 01:46:16;;;;;;;11.73;6.70;;;;;;;14.71;78.53;94019.69;4162440;28;20049;-52
2022/05/30 01:48:18;;;;;;;9.02;5.65;;;;;;;14.61;79.03;94021.91;4173560;28;20041;-53
2022/05/30 01:50:23;;;;;;;7.85;5.93;;;;;;;14.66;79.00;94022.09;4165103;28;20057;-55
2022/05/30 01:52:24;;;;;;;7.20;5.22;;;;;;;14.56;79.00;94021.66;4159455;28;20054;-57
2022/05/30 01:54:26;;;;;;;6.95;5.00;;;;;;;14.61;79.58;94019.25;4171644;28;20079;-52
2022/05/30 01:56:28;;;;;;;10.70;5.05;;;;;;;14.73;78.77;94017.66;4166580;28;20113;-55
2022/05/30 01:58:32;;;;;;;8.70;4.93;;;;;;;14.83;78.25;94021.72;4163574;28;20046;-49
2022/05/30 02:00:35;;;;;;;10.65;4.97;;;;;;;14.75;78.44;94017.44;4162552;28;20049;-50
2022/05/30 02:02:38;;;;;;;7.03;4.95;;;;;;;14.90;78.71;94022.53;4166116;28;20458;-53
2022/05/30 02:04:39;;;;;;;6.75;4.28;;;;;;;15.02;78.08;94020.91;4166782;28;20083;-51
2022/05/30 02:06:41;;;;;;;8.88;5.10;;;;;;;15.02;76.67;94018.28;4168235;28;20063;-52
2022/05/30 02:08:43;;;;;;;6.63;5.10;;;;;;;14.67;77.69;94029.00;4158621;28;20615;-54
2022/05/30 02:10:45;;;;;;;9.55;4.93;;;;;;;14.53;78.47;94028.13;4157840;28;20054;-52
2022/05/30 02:12:46;;;;;;;7.57;5.15;;;;;;;14.48;78.31;94033.19;4159116;28;20107;-53
2022/05/30 02:14:48;;;;;;;11.77;5.20;;;;;;;14.45;77.89;94036.22;4156367;28;20757;-51
2022/05/30 02:17:04;;;;;;;10.20;5.10;;;;;;;14.39;78.23;94038.84;4162989;28;20044;-55
2022/05/30 02:19:06;;;;;;;9.02;5.43;;;;;;;14.51;78.00;94045.97;4166647;28;20045;-53
2022/05/30 02:21:08;;;;;;;9.02;5.10;;;;;;;14.50;77.50;94049.63;4158971;28;20234;-52
2022/05/30 02:23:09;;;;;;;11.93;5.28;;;;;;;14.54;77.13;94039.50;4172930;28;20076;-55
2022/05/30 02:25:12;;;;;;;8.65;5.65;;;;;;;14.62;77.02;94041.97;4172017;28;20123;-52
2022/05/30 02:27:14;;;;;;;9.98;5.53;;;;;;;14.67;76.15;94044.84;4159109;28;20045;-51
2022/05/30 02:29:16;;;;;;;10.52;5.18;;;;;;;14.67;75.85;94044.84;4159054;28;20385;-48
2022/05/30 02:31:18;;;;;;;9.73;4.90;;;;;;;14.68;75.82;94050.91;4157224;28;20041;-51
2022/05/30 02:38:00;;;;;;;10.80;5.20;;;;;;;14.89;75.70;94056.00;4162792;28;20123;-52
2022/05/30 02:40:03;;;;;;;8.15;4.97;;;;;;;15.01;76.02;94048.28;4158508;28;20426;-50
2022/05/30 02:42:06;;;;;;;9.63;4.93;;;;;;;15.24;75.64;94049.75;4163372;28;20537;-52
2022/05/30 02:44:08;;;;;;;11.27;5.53;;;;;;;15.37;74.76;94052.38;4175382;28;20116;-54
2022/05/30 02:46:10;;;;;;;10.85;6.22;;;;;;;15.49;74.72;94052.56;4161293;28;20099;-53
2022/05/30 02:48:12;;;;;;;12.00;5.15;;;;;;;15.62;74.13;94049.91;4163305;28;20137;-51
2022/05/30 02:50:14;;;;;;;9.38;5.20;;;;;;;15.76;73.41;94059.44;4164621;28;20107;-52
2022/05/30 02:52:16;;;;;;;9.90;4.95;;;;;;;15.86;73.63;94063.50;4164012;28;20045;-54
2022/05/30 02:54:18;;;;;;;11.55;5.18;;;;;;;15.93;73.39;94069.56;4164022;28;20057;-51
2022/05/30 02:56:19;;;;;;;11.70;5.07;;;;;;;15.96;72.69;94075.25;4174081;28;20501;-52
2022/05/30 02:58:22;;;;;;;11.38;4.63;;;;;;;15.99;72.14;94070.59;4161735;28;20502;-51
2022/05/30 03:00:26;;;;;;;12.00;5.45;;;;;;;15.96;71.94;94075.25;4169077;28;20040;-51
2022/05/30 03:02:28;;;;;;;8.80;5.18;;;;;;;15.96;72.17;94085.03;4174015;28;20049;-53
2022/05/30 03:04:30;;;;;;;7.80;4.97;;;;;;;15.84;71.79;94087.47;4172584;28;20130;-49
2022/05/30 03:06:31;;;;;;;10.30;5.35;;;;;;;15.45;72.54;94088.31;4165258;28;20057;-51
2022/05/30 03:08:33;;;;;;;9.88;6.00;;;;;;;14.88;74.53;94093.94;4178016;28;20520;-52
2022/05/30 03:10:36;;;;;;;9.88;5.78;;;;;;;14.44;76.27;94104.94;4176368;28;20094;-54
2022/05/30 03:12:37;;;;;;;12.40;5.82;;;;;;;14.50;77.05;94112.88;4178399;28;20118;-50
2022/05/30 03:14:39;;;;;;;12.20;5.88;;;;;;;14.64;76.11;94105.03;4172646;28;20491;-52
2022/05/30 03:16:41;;;;;;;7.60;5.15;;;;;;;14.76;75.88;94105.28;4177472;28;20207;-48
2022/05/30 03:18:43;;;;;;;13.70;5.72;;;;;;;14.74;75.33;94110.75;4177964;28;20194;-47
2022/05/30 03:20:45;;;;;;;9.70;5.60;;;;;;;14.90;75.72;94117.47;4161359;28;20500;-51
2022/05/30 03:22:47;;;;;;;14.85;6.00;;;;;;;14.82;74.18;94125.56;4175099;28;20045;-51
2022/05/30 03:24:49;;;;;;;13.02;6.10;;;;;;;14.41;75.89;94121.13;4177453;28;20056;-50
2022/05/30 03:26:51;;;;;;;12.38;5.53;;;;;;;14.22;76.17;94131.41;4177424;28;20091;-53
2022/05/30 03:28:52;;;;;;;9.95;5.20;;;;;;;13.95;76.59;94134.91;4177508;28;20551;-49
2022/05/30 03:30:55;;;;;;;10.52;5.70;;;;;;;13.84;77.59;94131.78;4165141;28;20060;-46
2022/05/30 03:32:58;;;;;;;12.48;5.45;;;;;;;13.79;78.16;94131.56;4174800;28;20053;-52
2022/05/30 03:35:00;;;;;;;8.38;5.13;;;;;;;13.83;78.08;94143.34;4161195;28;20139;-51
2022/05/30 03:37:02;;;;;;;7.85;4.90;;;;;;;13.78;78.18;94148.34;4161928;28;20049;-48
2022/05/30 03:39:03;;;;;;;7.65;5.05;;;;;;;13.56;79.13;94155.47;4168433;28;20373;-49
2022/05/30 03:41:05;;;;;;;8.07;4.78;;;;;;;13.43;79.52;94153.56;4169140;28;20860;-53
2022/05/30 03:43:09;;;;;;;8.93;5.97;;;;;;;13.39;79.64;94151.50;4177418;28;20049;-51
2022/05/30 03:45:13;;;;;;;9.88;5.00;;;;;;;13.22;80.16;94156.16;4175334;28;20049;-49
2022/05/30 03:47:14;;;;;;;;;;;;;;;13.23;80.58;94160.44;4178138;28;20448;-50
2022/05/30 03:49:16;;;;;;;8.02;4.97;;;;;;;13.26;80.39;94158.22;4177633;28;19925;-51
2022/05/30 03:51:18;;;;;;;12.02;5.95;;;;;;;13.06;80.71;94168.56;4166848;28;20049;-55
2022/05/30 03:53:19;;;;;;;10.23;5.63;;;;;;;13.16;80.79;94170.06;4173064;28;20122;-52
2022/05/30 03:55:22;;;;;;;9.30;5.70;;;;;;;13.15;80.89;94176.34;4174253;28;20064;-53
2022/05/30 03:57:24;;;;;;;8.77;5.28;;;;;;;13.30;80.25;94179.75;4160936;28;20068;-51
2022/05/30 03:59:26;;;;;;;11.25;5.40;;;;;;;13.32;79.35;94177.75;4166953;28;20057;-49
2022/05/30 04:01:34;;;;;;;10.23;5.28;;;;;;;13.49;79.31;94179.13;4177510;28;20249;-55
2022/05/30 04:03:36;;;;;;;6.70;5.45;;;;;;;13.58;78.70;94190.31;4163094;28;20149;-52
2022/05/30 04:05:38;;;;;;;8.13;6.13;;;;;;;13.88;79.24;94185.69;4160062;28;20057;-54
2022/05/30 04:07:40;;;;;;;13.02;6.30;;;;;;;14.18;77.35;94185.50;4166113;28;20053;-53
2022/05/30 04:09:42;;;;;;;7.65;5.35;;;;;;;14.49;75.81;94184.22;4176315;28;20107;-50
2022/05/30 04:11:43;;;;;;;7.88;4.80;;;;;;;14.67;74.44;94178.44;4175997;28;20049;-51
2022/05/30 04:13:45;;;;;;;8.32;4.57;;;;;;;14.87;74.26;94192.53;4163363;28;20115;-54
2022/05/30 04:15:47;;;;;;;7.70;4.55;;;;;;;14.69;73.05;94194.88;4172160;28;20146;-51
2022/05/30 04:17:49;;;;;;;12.23;5.15;;;;;;;14.51;73.58;94203.28;4165121;28;20115;-51
2022/05/30 04:19:51;;;;;;;9.27;5.03;;;;;;;14.62;74.72;94192.22;4171912;28;20057;-48
2022/05/30 04:21:53;;;;;;;7.47;4.45;;;;;;;14.84;74.24;94200.00;4167952;28;20170;-51
2022/05/30 04:23:55;;;;;;;12.13;4.75;;;;;;;15.08;73.30;94198.69;4160271;28;20045;-52
2022/05/30 04:25:57;;;;;;;6.55;4.68;;;;;;;15.28;72.08;94204.81;4160496;28;20469;-54
2022/05/30 04:27:59;;;;;;;7.22;4.63;;;;;;;15.47;71.66;94203.22;4173476;28;20076;-52
2022/05/30 04:30:00;;;;;;;6.90;5.25;;;;;;;15.66;71.00;94201.63;4165314;28;20044;-48
2022/05/30 04:32:03;;;;;;;7.55;4.60;;;;;;;15.85;70.08;94202.69;4168051;28;20127;-53
2022/05/30 04:34:07;;;;;;;6.05;4.65;;;;;;;15.88;69.70;94199.63;4172285;28;20139;-54
2022/05/30 04:36:11;;;;;;;8.00;4.68;;;;;;;16.00;69.31;94196.34;4161577;28;20057;-50
2022/05/30 04:38:13;;;;;;;6.28;4.88;;;;;;;16.12;68.79;94190.25;4172982;28;20115;-50
2022/05/30 04:40:18;;;;;;;6.07;4.55;;;;;;;16.20;68.75;94194.50;4167576;28;20298;-51
2022/05/30 04:42:19;;;;;;;6.65;5.00;;;;;;;16.32;68.26;94199.97;4175914;28;20140;-49
2022/05/30 04:44:21;;;;;;;8.43;5.03;;;;;;;16.43;68.44;94196.69;4171154;28;20616;-54
2022/05/30 04:46:23;;;;;;;8.77;5.55;;;;;;;16.58;68.23;94193.78;4158436;28;20111;-50
2022/05/30 04:48:25;;;;;;;7.95;5.75;;;;;;;16.70;68.23;94192.13;4170823;28;20505;-51
2022/05/30 04:50:27;;;;;;;10.88;6.07;;;;;;;16.82;68.16;94195.00;4172891;28;20197;-52
2022/05/30 04:52:29;;;;;;;7.35;4.90;;;;;;;16.92;67.66;94202.47;4159747;28;20127;-50
2022/05/30 04:54:30;;;;;;;8.23;5.63;;;;;;;17.00;67.35;94194.28;4160044;28;20477;-52
2022/05/30 04:56:32;;;;;;;7.88;5.43;;;;;;;17.13;67.32;94204.00;4168161;28;20567;-49
2022/05/30 04:58:36;;;;;;;7.18;5.45;;;;;;;17.26;67.12;94195.97;4169315;28;20041;-52
2022/05/30 05:00:37;;;;;;;12.57;6.60;;;;;;;17.36;66.81;94206.13;4160748;28;20125;-52
2022/05/30 05:02:40;;;;;;;10.25;7.18;;;;;;;17.40;67.04;94215.22;4161312;28;20049;-54
2022/05/30 05:04:41;;;;;;;10.77;8.20;;;;;;;17.39;67.54;94217.06;4172092;28;20048;-53
2022/05/30 05:06:43;;;;;;;10.32;8.02;;;;;;;17.53;67.12;94212.53;4174639;28;20075;-52
2022/05/30 05:08:51;;;;;;;12.48;7.95;;;;;;;17.63;67.14;94208.59;4165200;28;20231;-51
2022/05/30 05:10:59;;;;;;;12.65;8.85;;;;;;;17.67;67.27;94215.88;4165182;28;20113;-52
2022/05/30 05:13:01;;;;;;;10.10;7.75;;;;;;;17.62;67.26;94215.72;4172159;28;20056;-53
2022/05/30 05:15:03;;;;;;;10.05;8.10;;;;;;;17.67;67.69;94215.88;4158569;28;20121;-51
2022/05/30 05:17:06;;;;;;;11.50;8.68;;;;;;;17.80;67.98;94222.94;4168488;28;20057;-51
2022/05/30 05:19:08;;;;;;;13.77;8.23;;;;;;;17.89;68.03;94220.84;4171287;28;20045;-47
2022/05/30 05:21:25;;;;;;;12.18;7.75;;;;;;;18.00;67.12;94228.94;4163138;28;20048;-53
2022/05/30 05:23:31;;;;;;;9.85;7.13;;;;;;;18.07;66.53;94230.69;4175913;28;20079;-50
2022/05/30 05:25:36;;;;;;;11.68;7.45;;;;;;;18.19;66.38;94224.47;4164419;28;20433;-50
2022/05/30 05:27:38;;;;;;;14.50;8.27;;;;;;;18.23;65.30;94235.47;4173144;28;20057;-51
2022/05/30 05:29:39;;;;;;;13.10;9.25;;;;;;;17.54;66.08;94235.31;4162645;28;20053;-52
2022/05/30 05:31:41;;;;;;;14.23;8.98;;;;;;;17.22;67.16;94238.97;4170105;28;20050;-54
2022/05/30 05:33:43;;;;;;;12.82;9.52;;;;;;;16.72;69.30;94244.84;4167598;28;20048;-52
2022/05/30 05:35:46;;;;;;;14.68;9.68;;;;;;;16.70;69.93;94234.44;4175697;28;20152;-54
2022/05/30 05:37:48;;;;;;;18.43;11.93;;;;;;;16.72;68.65;94240.34;4160418;28;20062;-51
2022/05/30 05:39:50;;;;;;;18.55;10.77;;;;;;;16.61;69.41;94240.19;4164455;28;20045;-55
2022/05/30 05:41:51;;;;;;;17.98;11.48;;;;;;;16.53;70.25;94243.84;4161243;28;20123;-48
2022/05/30 05:43:54;;;;;;;15.23;10.65;;;;;;;16.68;70.04;94240.97;4171593;28;20114;-52
2022/05/30 05:45:56;;;;;;;17.67;11.90;;;;;;;16.58;70.29;94239.59;4157288;28;20046;-53
2022/05/30 05:47:58;;;;;;;14.50;10.40;;;;;;;16.76;70.54;94240.75;4159862;28;20135;-51
2022/05/30 05:49:59;;;;;;;21.83;11.10;;;;;;;16.87;69.63;94239.31;4168888;28;20053;-51
2022/05/30 05:52:02;;;;;;;15.25;10.88;;;;;;;17.00;68.85;94247.22;4175620;28;20049;-54
2022/05/30 05:54:05;;;;;;;16.33;10.95;;;;;;;17.04;69.05;94240.47;4160646;28;20426;-52
2022/05/30 05:56:14;;;;;;;14.98;10.93;;;;;;;17.26;68.27;94237.53;4174963;28;20052;-53
2022/05/30 05:58:16;;;;;;;14.38;9.85;;;;;;;17.55;67.78;94234.31;4166453;28;20141;-49
2022/05/30 06:00:18;;;;;;;17.10;10.77;;;;;;;17.80;66.74;94244.13;4170245;28;20592;-50
2022/05/30 06:02:22;;;;;;;16.77;11.05;;;;;;;17.90;65.32;94243.69;4160924;28;20053;-53
2022/05/30 06:04:24;;;;;;;12.60;9.55;;;;;;;17.30;66.47;94251.97;4158656;28;20060;-52
2022/05/30 06:06:26;;;;;;;14.15;9.88;;;;;;;17.49;67.57;94247.59;4158241;28;20041;-52
2022/05/30 06:08:28;;;;;;;14.27;10.80;;;;;;;17.17;67.65;94252.84;4166170;28;20490;-54
2022/05/30 06:10:30;;;;;;;14.80;10.98;;;;;;;17.05;68.71;94255.31;4174465;28;20057;-53
2022/05/30 06:12:37;;;;;;;16.67;10.75;;;;;;;17.15;68.96;94252.25;4161604;28;20069;-54
2022/05/30 06:14:38;;;;;;;18.85;10.10;;;;;;;17.22;69.18;94257.50;4157582;28;20107;-52
2022/05/30 06:16:40;;;;;;;14.55;10.13;;;;;;;17.37;68.10;94260.69;4158470;28;20061;-52
2022/05/30 06:18:42;;;;;;;12.43;9.68;;;;;;;17.57;67.75;94256.09;4159272;28;20061;-51
2022/05/30 06:20:44;;;;;;;19.40;9.98;;;;;;;17.70;67.50;94273.75;4161343;28;20464;-52
2022/05/30 06:22:46;;;;;;;15.10;10.00;;;;;;;17.48;67.46;94267.16;4158403;28;20382;-50
2022/05/30 06:24:48;;;;;;;14.95;10.52;;;;;;;17.56;67.30;94269.56;4163277;28;20061;-52
2022/05/30 06:26:50;;;;;;;15.85;10.60;;;;;;;17.69;67.11;94272.13;4167419;28;20057;-51
2022/05/30 06:28:54;;;;;;;14.82;11.30;;;;;;;17.80;67.83;94270.63;4159040;28;20050;-54
2022/05/30 06:30:56;;;;;;;15.95;10.63;;;;;;;17.96;67.37;94274.59;4156456;28;20695;-52
2022/05/30 06:32:58;;;;;;;14.80;10.65;;;;;;;17.95;67.27;94273.81;4158255;28;20045;-53
2022/05/30 06:35:00;;;;;;;15.13;10.70;;;;;;;17.86;67.73;94276.94;4164084;28;20049;-54
2022/05/30 06:37:02;;;;;;;13.63;10.25;;;;;;;17.58;67.41;94283.41;4167072;28;20648;-53
2022/05/30 06:39:03;;;;;;;12.77;8.82;;;;;;;17.65;67.31;94280.69;4158675;28;20104;-53
2022/05/30 06:41:22;;;;;;;15.63;9.60;;;;;;;17.28;68.34;94283.13;4164400;28;20053;-50
2022/05/30 06:43:27;;;;;;;16.42;9.80;;;;;;;17.42;69.27;94284.69;4158626;28;20397;-52
2022/05/30 06:45:30;;;;;;;16.63;9.15;;;;;;;17.55;66.94;94278.50;4170098;28;20130;-53
2022/05/30 06:47:31;;;;;;;13.80;9.65;;;;;;;17.63;67.97;94288.03;4162973;28;20057;-54
2022/05/30 06:49:34;;;;;;;13.65;9.57;;;;;;;17.95;67.60;94283.59;4168220;28;20049;-51
2022/05/30 06:51:36;;;;;;;15.90;10.25;;;;;;;18.24;67.07;94284.81;4167937;28;20075;-51
2022/05/30 06:53:40;;;;;;;17.48;9.98;;;;;;;18.15;66.00;94286.09;4175408;28;20107;-51
2022/05/30 06:55:42;;;;;;;;;;;;;;;18.24;66.84;94284.81;4161552;28;20049;-55
2022/05/30 07:00:05;;;;;;;18.30;10.30;;;;;;;18.75;65.59;94291.69;4158742;28;20046;-52
2022/05/30 07:02:07;;;;;;;17.17;10.48;;;;;;;18.64;65.58;94292.41;4169903;28;20053;-51
2022/05/30 07:04:08;;;;;;;19.95;11.13;;;;;;;18.38;66.79;94294.25;4159558;28;20061;-53
2022/05/30 07:06:13;;;;;;;13.88;10.30;;;;;;;18.62;66.43;94291.81;4175307;28;20052;-50
2022/05/30 07:08:15;;;;;;;14.75;9.63;;;;;;;18.74;65.22;94292.72;4168228;28;20363;-54
2022/05/30 07:10:16;;;;;;;15.18;10.45;;;;;;;18.58;65.22;94302.06;4158479;28;20478;-52
2022/05/30 07:12:18;;;;;;;19.92;10.65;;;;;;;18.62;66.22;94295.28;4158193;28;20163;-51
2022/05/30 07:14:20;;;;;;;13.02;10.32;;;;;;;18.70;65.96;94302.16;4157558;28;20474;-52
2022/05/30 07:16:24;;;;;;;16.17;10.98;;;;;;;18.76;66.21;94295.16;4156877;28;20107;-53
2022/05/30 07:18:26;;;;;;;13.65;11.73;;;;;;;18.93;65.65;94284.78;4166325;28;20466;-53
2022/05/30 07:20:28;;;;;;;15.57;10.82;;;;;;;19.17;64.97;94291.88;4159493;28;20084;-51
2022/05/30 07:22:30;;;;;;;16.35;10.10;;;;;;;18.85;64.70;94293.06;4157183;28;20134;-52
2022/05/30 07:24:32;;;;;;;13.23;10.32;;;;;;;18.74;66.17;94289.28;4158049;28;20544;-53
2022/05/30 07:26:33;;;;;;;13.55;10.82;;;;;;;18.95;65.81;94293.34;4159830;28;20130;-52
2022/05/30 07:28:35;;;;;;;14.98;10.80;;;;;;;19.17;65.39;94294.53;4169257;28;20481;-53
2022/05/30 07:30:37;;;;;;;17.65;10.65;;;;;;;19.29;64.25;94286.63;4175372;28;20112;-47
2022/05/30 07:32:39;;;;;;;15.32;10.77;;;;;;;19.47;63.92;94287.63;4164001;28;20140;-52
2022/05/30 07:34:41;;;;;;;15.70;9.98;;;;;;;19.77;63.73;94293.00;4164204;28;20465;-50
2022/05/30 07:36:42;;;;;;;16.98;11.10;;;;;;;19.97;62.18;94290.88;4171786;28;20100;-52
2022/05/30 07:38:44;;;;;;;13.13;10.00;;;;;;;20.05;62.68;94297.72;4161166;28;20053;-47
2022/05/30 07:40:46;;;;;;;15.68;9.30;;;;;;;20.27;61.46;94294.53;4165051;28;20441;-55
2022/05/30 07:42:48;;;;;;;12.82;9.48;;;;;;;20.47;61.55;94292.34;4162204;28;20387;-49
2022/05/30 07:44:50;;;;;;;12.98;9.90;;;;;;;20.69;61.45;94294.47;4159488;28;20054;-54
2022/05/30 07:46:52;;;;;;;15.15;10.57;;;;;;;20.92;60.81;94296.31;4161273;28;20150;-53
2022/05/30 07:49:00;;;;;;;14.45;9.15;;;;;;;21.01;59.89;94285.06;4176046;28;20072;-51
2022/05/30 07:51:02;;;;;;;21.42;12.05;;;;;;;20.91;59.57;94294.69;4172530;28;20103;-52
2022/05/30 07:53:04;;;;;;;10.87;8.93;;;;;;;20.59;59.16;94292.41;4160945;28;20698;-53
2022/05/30 07:55:06;;;;;;;17.40;9.82;;;;;;;20.12;60.36;94298.41;4170515;28;20678;-53
2022/05/30 07:57:08;;;;;;;14.30;9.27;;;;;;;19.79;61.96;94294.41;4177266;28;20140;-53
2022/05/30 07:59:10;;;;;;;19.65;10.20;;;;;;;19.86;61.22;94296.97;4176836;28;20106;-50
2022/05/30 08:01:17;;;;;;;16.15;9.23;;;;;;;20.04;61.07;94296.09;4176054;28;20114;-52
2022/05/30 08:03:19;;;;;;;12.77;8.25;;;;;;;20.35;60.94;94295.00;4169124;28;20162;-49
2022/05/30 08:05:22;;;;;;;13.27;10.25;;;;;;;20.39;59.43;94296.16;4160561;28;20057;-51
2022/05/30 08:07:23;;;;;;;15.77;9.02;;;;;;;20.30;59.56;94296.72;4160679;28;20050;-50
2022/05/30 08:09:25;;;;;;;12.50;8.52;;;;;;;20.27;60.19;94300.66;4173873;28;20128;-51
2022/05/30 08:11:27;;;;;;;19.20;9.35;;;;;;;20.26;60.02;94293.69;4160552;28;20049;-52
2022/05/30 08:13:28;;;;;;;13.48;9.05;;;;;;;20.31;59.89;94301.00;4167835;28;20053;-50
2022/05/30 08:15:30;;;;;;;13.05;8.65;;;;;;;20.36;60.28;94296.59;4173805;28;20596;-53
2022/05/30 08:17:32;;;;;;;12.48;8.40;;;;;;;20.68;60.04;94300.84;4161818;28;20119;-53
2022/05/30 08:19:35;;;;;;;16.92;9.15;;;;;;;20.98;58.96;94300.72;4173292;28;20049;-54
2022/05/30 08:21:52;;;;;;;12.45;8.70;;;;;;;21.11;58.82;94304.97;4176737;28;20072;-55
2022/05/30 08:23:54;;;;;;;14.77;8.27;;;;;;;21.23;56.87;94301.25;4165153;28;20057;-52
2022/05/30 08:25:56;;;;;;;12.82;8.40;;;;;;;21.41;56.67;94300.31;4159680;28;20053;-51
2022/05/30 08:27:57;;;;;;;12.80;8.35;;;;;;;21.23;56.43;94298.59;4172531;28;20187;-57
2022/05/30 08:29:59;;;;;;;13.13;9.57;;;;;;;21.34;56.84;94304.09;4157011;28;20042;-54
2022/05/30 08:32:03;;;;;;;13.88;8.23;;;;;;;21.19;57.52;94302.75;4160573;28;20061;-54
2022/05/30 08:34:06;;;;;;;10.43;7.88;;;;;;;21.29;56.47;94302.16;4159807;28;20486;-54
2022/05/30 08:36:10;;;;;;;11.70;7.95;;;;;;;21.45;56.21;94305.97;4160540;28;20057;-55
2022/05/30 08:38:12;;;;;;;13.13;7.88;;;;;;;21.52;56.62;94301.31;4172345;28;20057;-55
2022/05/30 08:42:43;;;;;;;11.23;8.32;;;;;;;21.63;56.19;94305.00;4162824;28;20042;-51
2022/05/30 08:44:45;;;;;;;13.10;7.93;;;;;;;21.84;55.70;94300.84;4159962;28;20119;-51
2022/05/30 08:46:57;;;;;;;11.52;7.75;;;;;;;22.12;55.33;94297.34;4169784;28;20478;-55
2022/05/30 08:49:22;;;;;;;10.52;8.20;;;;;;;21.70;54.10;94304.84;4159271;28;20459;-54
2022/05/30 08:51:45;;;;;;;11.35;7.35;;;;;;;21.75;55.00;94300.44;4174511;28;20049;-52
2022/05/30 08:53:56;;;;;;;15.18;7.25;;;;;;;21.52;54.41;94300.50;4176740;28;20114;-53
2022/05/30 08:56:06;;;;;;;12.80;7.90;;;;;;;21.45;55.22;94295.31;4163345;28;20105;-54
2022/05/30 08:58:29;;;;;;;9.57;7.65;;;;;;;21.62;55.54;94304.19;4167375;28;20050;-51
2022/05/30 09:00:36;;;;;;;11.15;8.45;;;;;;;21.71;55.59;94298.47;4160490;28;20129;-52
2022/05/30 09:02:45;;;;;;;15.02;7.95;;;;;;;21.83;55.46;94305.38;4174175;28;20049;-52
2022/05/30 09:04:51;;;;;;;15.88;8.57;;;;;;;21.72;55.28;94303.56;4168327;28;20123;-54
2022/05/30 09:06:59;;;;;;;9.70;7.85;;;;;;;21.60;54.61;94308.16;4158953;28;20536;-53
2022/05/30 09:09:34;;;;;;;11.13;7.18;;;;;;;21.57;54.81;94298.75;4170862;28;20052;-53
2022/05/30 09:11:49;;;;;;;10.82;7.65;;;;;;;21.71;54.82;94304.63;4158519;28;20154;-55
2022/05/30 09:13:52;;;;;;;12.43;7.07;;;;;;;21.88;54.39;94310.00;4158391;28;20521;-54
2022/05/30 09:16:19;;;;;;;11.70;7.03;;;;;;;21.55;54.28;94319.50;4171197;28;20134;-55
2022/05/30 09:18:33;;;;;;;9.70;6.75;;;;;;;21.38;55.41;94318.56;4172322;28;20119;-56
2022/05/30 09:20:37;;;;;;;13.93;7.25;;;;;;;21.36;55.91;94315.34;4171080;28;20095;-55
2022/05/30 09:22:39;;;;;;;10.65;6.95;;;;;;;21.53;55.09;94318.94;4163372;28;20045;-55
2022/05/30 09:25:55;;;;;;;11.20;7.50;;;;;;;21.85;54.27;94313.13;4169883;28;20151;-56
2022/05/30 09:27:05;;;;;;;13.65;7.85;;;;;;;21.85;53.87;94323.78;4158284;28;20080;-54
2022/05/30 09:29:20;;;;;;;16.70;9.15;;;;;;;21.83;54.20;94323.22;4159381;28;20131;-55
2022/05/30 09:31:40;;;;;;;14.55;8.07;;;;;;;21.91;54.78;94325.50;4160072;28;20052;-55
2022/05/30 09:33:48;;;;;;;15.30;7.13;;;;;;;21.85;54.69;94326.47;4165355;28;20116;-55
2022/05/30 09:36:13;;;;;;;12.57;7.53;;;;;;;22.09;54.40;94336.00;4172187;28;20068;-56
2022/05/30 09:38:21;;;;;;;14.60;8.77;;;;;;;21.74;55.06;94328.13;4171843;28;20495;-55
2022/05/30 09:40:51;;;;;;;17.42;7.82;;;;;;;22.06;55.13;94330.31;4160164;28;20091;-56
2022/05/30 09:42:55;;;;;;;12.73;7.03;;;;;;;22.42;54.14;94315.75;4161132;28;20044;-55
2022/05/30 09:45:07;;;;;;;11.80;6.75;;;;;;;22.74;52.83;94317.06;4166315;28;20099;-55
2022/05/30 09:47:18;;;;;;;10.07;6.82;;;;;;;23.05;52.14;94319.16;4172665;28;20477;-56
2022/05/30 09:49:38;;;;;;;10.30;7.10;;;;;;;22.75;51.56;94324.00;4164150;28;20460;-57
2022/05/30 09:51:43;;;;;;;12.00;6.97;;;;;;;22.78;52.91;94321.69;4164843;28;20069;-53
2022/05/30 09:53:49;;;;;;;10.63;6.55;;;;;;;22.77;52.67;94311.22;4159182;28;20441;-55